Time;durP1;ratioP1;P1;durP2;ratioP2;P2;SDS_P1;SDS_P2;PMS_P1;PMS_P2;Temp;Humidity;BMP_temperature;BMP_pressure;BME280_temperature;BME280_humidity;BME280_pressure;Samples;Min_cycle;Max_cycle;Signal;HPM_P1;HPM_P2
2021/11/30 00:00:53;;;;;;;;;16.67;14.67;;;;;;;;5140906;27;11486;-71
2021/11/30 00:03:18;;;;;;;;;14.00;12.33;;;;;;;;5141151;27;11564;-70
2021/11/30 00:05:45;;;;;;;;;16.33;14.00;;;;;;;;5140661;27;11372;-70
2021/11/30 00:08:11;;;;;;;;;16.33;16.33;;;;;;;;5138766;27;14700;-71
2021/11/30 00:10:48;;;;;;;;;14.00;12.67;;;;;;;;5141232;27;9092;-70
2021/11/30 00:13:18;;;;;;;;;20.67;15.67;;;;;;;;5140897;27;11624;-70
2021/11/30 00:15:44;;;;;;;;;11.67;11.00;;;;;;;;5141061;27;12326;-70
2021/11/30 00:18:09;;;;;;;;;15.67;12.67;;;;;;;;5140802;27;13559;-70
2021/11/30 00:20:38;;;;;;;;;16.67;12.67;;;;;;;;5140556;27;11603;-70
2021/11/30 00:23:04;;;;;;;;;18.00;12.67;;;;;;;;5140174;27;9849;-71
2021/11/30 00:25:29;;;;;;;;;15.33;12.67;;;;;;;;5140821;27;8985;-71
2021/11/30 00:27:55;;;;;;;;;15.00;15.00;;;;;;;;5140213;27;9310;-71
2021/11/30 00:30:21;;;;;;;;;13.33;13.00;;;;;;;;5140639;27;10670;-70
2021/11/30 00:32:47;;;;;;;;;6.00;6.00;;;;;;;;5140876;27;10618;-70
2021/11/30 00:35:12;;;;;;;;;13.67;13.67;;;;;;;;5140605;27;22294;-71
2021/11/30 00:37:38;;;;;;;;;11.33;10.67;;;;;;;;5140338;27;22142;-70
2021/11/30 00:40:03;;;;;;;;;14.33;14.33;;;;;;;;5140698;27;10384;-71
2021/11/30 00:42:28;;;;;;;;;13.33;12.33;;;;;;;;5140476;27;11493;-70
2021/11/30 00:44:54;;;;;;;;;23.67;12.67;;;;;;;;5140706;27;8934;-70
2021/11/30 00:47:26;;;;;;;;;13.00;12.00;;;;;;;;5140084;27;13513;-70
2021/11/30 00:49:52;;;;;;;;;16.00;13.00;;;;;;;;5140651;27;13549;-70
2021/11/30 00:52:17;;;;;;;;;13.67;12.33;;;;;;;;5140725;27;8906;-70
2021/11/30 00:54:43;;;;;;;;;15.00;13.00;;;;;;;;5139898;27;11928;-69
2021/11/30 00:57:08;;;;;;;;;16.67;13.00;;;;;;;;5140533;27;11500;-70
2021/11/30 00:59:34;;;;;;;;;4.67;3.00;;;;;;;;5140196;27;8919;-70
2021/11/30 01:01:59;;;;;;;;;13.67;12.00;;;;;;;;5139951;27;23371;-70
2021/11/30 01:04:25;;;;;;;;;14.67;12.67;;;;;;;;5139742;27;22596;-70
2021/11/30 01:06:50;;;;;;;;;17.33;16.00;;;;;;;;5140438;27;12062;-70
2021/11/30 01:09:16;;;;;;;;;7.33;5.67;;;;;;;;5140589;27;11411;-70
2021/11/30 01:11:41;;;;;;;;;14.67;14.67;;;;;;;;5139777;27;23415;-69
2021/11/30 01:14:08;;;;;;;;;12.33;9.00;;;;;;;;5140024;27;22493;-70
2021/11/30 01:16:33;;;;;;;;;18.00;16.00;;;;;;;;5139600;27;21587;-69
2021/11/30 01:19:00;;;;;;;;;14.67;14.67;;;;;;;;5139487;27;21425;-69
2021/11/30 01:21:25;;;;;;;;;29.00;25.50;;;;;;;;5140396;27;13137;-69
2021/11/30 01:23:51;;;;;;;;;20.33;18.00;;;;;;;;5138241;27;14603;-69
2021/11/30 01:26:16;;;;;;;;;14.67;13.67;;;;;;;;5140336;27;12757;-69
2021/11/30 01:28:41;;;;;;;;;17.67;15.67;;;;;;;;5139986;27;13225;-69
2021/11/30 01:31:07;;;;;;;;;21.75;19.00;;;;;;;;5140101;27;9631;-69
2021/11/30 01:33:35;;;;;;;;;19.00;15.33;;;;;;;;5138325;27;13942;-70
2021/11/30 01:36:00;;;;;;;;;19.00;15.33;;;;;;;;5140091;27;13353;-70
2021/11/30 01:38:27;;;;;;;;;16.67;15.00;;;;;;;;5140531;27;8898;-69
2021/11/30 01:40:52;;;;;;;;;18.67;17.33;;;;;;;;5139760;27;11482;-70
2021/11/30 01:43:22;;;;;;;;;21.33;19.67;;;;;;;;5139368;27;12875;-70
2021/11/30 01:51:15;;;;;;;;;18.33;13.67;;;;;;;;5140122;27;9578;-70
2021/11/30 01:53:41;;;;;;;;;19.00;16.00;;;;;;;;5139825;27;11355;-70
2021/11/30 01:56:06;;;;;;;;;18.00;16.00;;;;;;;;5139386;27;11969;-70
2021/11/30 01:58:32;;;;;;;;;18.00;16.00;;;;;;;;5139426;27;8776;-69
2021/11/30 02:00:57;;;;;;;;;17.33;16.33;;;;;;;;5139716;27;8800;-70
2021/11/30 02:03:22;;;;;;;;;19.00;18.00;;;;;;;;5139532;27;12654;-70
2021/11/30 02:05:48;;;;;;;;;18.00;16.00;;;;;;;;5139237;27;11717;-70
2021/11/30 02:08:13;;;;;;;;;14.33;12.00;;;;;;;;5139423;27;8784;-70
2021/11/30 02:10:39;;;;;;;;;15.25;15.00;;;;;;;;5139135;27;10359;-70
2021/11/30 02:13:05;;;;;;;;;21.00;19.00;;;;;;;;5140098;27;8852;-70
2021/11/30 02:15:31;;;;;;;;;14.33;14.33;;;;;;;;5139613;27;12474;-70
2021/11/30 02:18:02;;;;;;;;;19.33;16.67;;;;;;;;5138829;27;13550;-71
2021/11/30 02:20:27;;;;;;;;;15.67;14.67;;;;;;;;5138958;27;13045;-71
2021/11/30 02:22:58;;;;;;;;;15.67;14.67;;;;;;;;5138413;27;10674;-71
2021/11/30 02:25:23;;;;;;;;;21.00;13.00;;;;;;;;5139041;27;8780;-70
2021/11/30 02:27:50;;;;;;;;;14.33;12.33;;;;;;;;5139606;27;13921;-69
2021/11/30 02:30:15;;;;;;;;;16.67;15.33;;;;;;;;5139617;27;14449;-71
2021/11/30 02:32:41;;;;;;;;;15.00;14.67;;;;;;;;5142715;27;10665;-70
2021/11/30 02:35:07;;;;;;;;;15.67;13.00;;;;;;;;5142667;27;11378;-71
2021/11/30 02:37:38;;;;;;;;;15.75;15.50;;;;;;;;5142379;27;11754;-70
2021/11/30 02:40:04;;;;;;;;;12.25;12.25;;;;;;;;5142894;27;10593;-71
2021/11/30 02:42:30;;;;;;;;;18.33;17.33;;;;;;;;5143222;27;11509;-71
2021/11/30 02:44:56;;;;;;;;;14.25;11.75;;;;;;;;5142663;27;8795;-70
2021/11/30 02:47:23;;;;;;;;;15.00;14.50;;;;;;;;5142388;27;10404;-70
2021/11/30 02:49:49;;;;;;;;;13.25;12.50;;;;;;;;5142565;27;13406;-70
2021/11/30 02:52:17;;;;;;;;;15.33;14.00;;;;;;;;5142770;27;11545;-70
2021/11/30 02:54:44;;;;;;;;;14.25;13.50;;;;;;;;5141487;27;11427;-70
2021/11/30 02:57:11;;;;;;;;;16.33;14.33;;;;;;;;5142557;27;11477;-70
2021/11/30 02:59:39;;;;;;;;;12.00;12.00;;;;;;;;5141992;27;11460;-71
2021/11/30 03:02:09;;;;;;;;;12.00;8.00;;;;;;;;5143096;27;11673;-71
2021/11/30 03:04:34;;;;;;;;;18.67;12.00;;;;;;;;5142274;27;17602;-70
2021/11/30 03:07:00;;;;;;;;;14.75;12.00;;;;;;;;5141972;27;21733;-71
2021/11/30 03:09:25;;;;;;;;;10.00;8.67;;;;;;;;5142163;27;10289;-70
2021/11/30 03:11:51;;;;;;;;;16.33;12.67;;;;;;;;5141743;27;21373;-71
2021/11/30 03:14:16;;;;;;;;;14.00;12.50;;;;;;;;5141683;27;21650;-70
2021/11/30 03:16:42;;;;;;;;;12.50;11.00;;;;;;;;5141944;27;11457;-71
2021/11/30 03:19:08;;;;;;;;;14.33;11.00;;;;;;;;5141586;27;11590;-71
2021/11/30 03:21:33;;;;;;;;;14.67;11.67;;;;;;;;5142708;27;8909;-71
2021/11/30 03:23:59;;;;;;;;;12.33;11.00;;;;;;;;5142109;27;8947;-70
2021/11/30 03:26:24;;;;;;;;;8.25;7.25;;;;;;;;5142316;27;11518;-70
2021/11/30 03:28:49;;;;;;;;;15.25;14.75;;;;;;;;5141662;27;22224;-71
2021/11/30 03:34:03;;;;;;;;;12.00;11.00;;;;;;;;5141835;27;9538;-70
2021/11/30 03:36:29;;;;;;;;;12.25;12.25;;;;;;;;5142058;27;11648;-70
2021/11/30 03:38:55;;;;;;;;;10.75;10.75;;;;;;;;5141814;27;11446;-70
2021/11/30 03:41:20;;;;;;;;;15.00;11.25;;;;;;;;5141661;27;10480;-70
2021/11/30 03:43:46;;;;;;;;;12.25;11.00;;;;;;;;5141362;27;10339;-70
2021/11/30 03:46:11;;;;;;;;;13.50;11.75;;;;;;;;5141631;27;11348;-69
2021/11/30 03:48:37;;;;;;;;;14.25;8.25;;;;;;;;5141111;27;11641;-69
2021/11/30 03:51:03;;;;;;;;;12.50;9.00;;;;;;;;5141127;27;21401;-70
2021/11/30 03:53:28;;;;;;;;;9.00;9.00;;;;;;;;5141913;27;10347;-70
2021/11/30 03:55:53;;;;;;;;;9.00;9.00;;;;;;;;5141330;27;16675;-70
2021/11/30 03:58:19;;;;;;;;;9.50;9.50;;;;;;;;5142314;27;8795;-70
2021/11/30 04:00:44;;;;;;;;;10.00;9.00;;;;;;;;5141672;27;8776;-70
2021/11/30 04:03:10;;;;;;;;;12.50;9.00;;;;;;;;5141027;27;21466;-70
2021/11/30 04:05:36;;;;;;;;;7.25;5.50;;;;;;;;5141489;27;8807;-71
2021/11/30 04:08:01;;;;;;;;;10.00;10.00;;;;;;;;5140915;27;21663;-70
2021/11/30 04:10:27;;;;;;;;;9.50;8.00;;;;;;;;5138857;27;24584;-70
2021/11/30 04:12:52;;;;;;;;;10.50;10.50;;;;;;;;5141311;27;22400;-70
2021/11/30 04:15:18;;;;;;;;;8.75;8.75;;;;;;;;5141426;27;22488;-69
2021/11/30 04:17:43;;;;;;;;;10.75;9.00;;;;;;;;5140855;27;22112;-69
2021/11/30 04:20:09;;;;;;;;;12.00;8.00;;;;;;;;5140822;27;21672;-70
2021/11/30 04:22:35;;;;;;;;;16.00;11.25;;;;;;;;5140867;27;10564;-70
2021/11/30 04:25:00;;;;;;;;;14.00;14.00;;;;;;;;5140531;27;22901;-70
2021/11/30 06:52:15;;;;;;;;;15.00;15.00;;;;;;;;5121074;27;2278578;-74
2021/11/30 06:54:45;;;;;;;;;12.00;11.25;;;;;;;;5185606;27;22585;-77
2021/11/30 06:57:11;;;;;;;;;8.50;8.50;;;;;;;;5178657;27;11455;-75
2021/11/30 06:59:36;;;;;;;;;9.50;7.00;;;;;;;;5191662;27;23420;-76
2021/11/30 07:02:01;;;;;;;;;11.50;11.50;;;;;;;;5176968;27;11378;-77
2021/11/30 07:04:28;;;;;;;;;11.75;11.75;;;;;;;;5157581;27;23412;-74
2021/11/30 07:09:21;;;;;;;;;11.00;11.00;;;;;;;;5156967;27;8757;-75
2021/11/30 07:14:12;;;;;;;;;21.33;20.33;;;;;;;;5157226;27;8794;-76
2021/11/30 07:16:37;;;;;;;;;16.33;16.33;;;;;;;;5157134;27;13202;-77
2021/11/30 07:19:03;;;;;;;;;15.33;15.33;;;;;;;;5156858;27;10684;-76
2021/11/30 07:21:28;;;;;;;;;20.33;17.00;;;;;;;;5156570;27;8794;-77
2021/11/30 07:23:55;;;;;;;;;17.00;15.50;;;;;;;;5156454;27;13802;-76
2021/11/30 07:26:21;;;;;;;;;15.00;15.00;;;;;;;;5137498;27;13730;-76
2021/11/30 07:28:46;;;;;;;;;18.75;18.00;;;;;;;;5156722;27;12529;-75
2021/11/30 07:31:12;;;;;;;;;17.25;17.00;;;;;;;;5156946;27;10346;-75
2021/11/30 07:33:38;;;;;;;;;18.00;15.50;;;;;;;;5157201;27;9545;-75
2021/11/30 07:36:05;;;;;;;;;25.50;25.50;;;;;;;;5156629;27;11821;-75
2021/11/30 07:38:31;;;;;;;;;27.00;24.00;;;;;;;;5156495;27;13402;-76
2021/11/30 07:40:56;;;;;;;;;22.00;22.00;;;;;;;;5156719;27;11486;-77
2021/11/30 07:43:22;;;;;;;;;30.33;27.33;;;;;;;;5174118;27;9160;-76
2021/11/30 07:45:47;;;;;;;;;20.67;17.00;;;;;;;;5174099;27;13285;-74
2021/11/30 07:48:13;;;;;;;;;18.00;16.00;;;;;;;;5177225;27;13262;-76
2021/11/30 07:50:38;;;;;;;;;15.00;15.00;;;;;;;;5176083;27;12846;-76
2021/11/30 07:53:03;;;;;;;;;18.00;18.00;;;;;;;;5176806;27;9044;-76
2021/11/30 07:55:29;;;;;;;;;18.00;18.00;;;;;;;;5176648;27;8886;-76
2021/11/30 07:57:54;;;;;;;;;25.33;21.67;;;;;;;;5177460;27;8772;-77
2021/11/30 08:00:20;;;;;;;;;21.33;20.00;;;;;;;;5176847;27;13471;-75
2021/11/30 08:02:46;;;;;;;;;20.67;19.33;;;;;;;;5167827;27;11384;-75
2021/11/30 08:05:12;;;;;;;;;19.33;17.33;;;;;;;;5163829;27;13533;-76
2021/11/30 08:07:38;;;;;;;;;24.33;23.00;;;;;;;;5144084;27;12609;-74
2021/11/30 08:10:04;;;;;;;;;11.67;6.00;;;;;;;;5162837;27;14324;-75
2021/11/30 08:12:29;;;;;;;;;24.00;23.00;;;;;;;;5161904;27;22757;-76
2021/11/30 08:14:55;;;;;;;;;26.00;26.00;;;;;;;;5162046;27;22700;-76
2021/11/30 08:17:20;;;;;;;;;28.50;26.50;;;;;;;;5162748;27;9530;-76
2021/11/30 08:19:47;;;;;;;;;27.00;23.25;;;;;;;;5162015;27;11425;-72
2021/11/30 08:22:12;;;;;;;;;26.75;22.75;;;;;;;;5162764;27;12075;-75
2021/11/30 08:24:38;;;;;;;;;31.50;24.50;;;;;;;;5143168;27;10700;-74
2021/11/30 08:27:04;;;;;;;;;23.50;21.75;;;;;;;;5161897;27;13233;-74
2021/11/30 08:29:31;;;;;;;;;29.50;23.25;;;;;;;;5159171;27;13371;-75
2021/11/30 08:31:57;;;;;;;;;22.00;20.25;;;;;;;;5162773;27;10500;-77
2021/11/30 08:34:22;;;;;;;;;25.75;20.25;;;;;;;;5162688;27;10704;-76
2021/11/30 08:36:47;;;;;;;;;20.00;18.33;;;;;;;;5162876;27;8858;-76
2021/11/30 08:39:13;;;;;;;;;26.00;23.00;;;;;;;;5162983;27;11491;-75
2021/11/30 08:41:38;;;;;;;;;26.25;21.50;;;;;;;;5162583;27;12701;-76
2021/11/30 08:44:04;;;;;;;;;24.75;20.50;;;;;;;;5162385;27;10343;-77
2021/11/30 08:46:29;;;;;;;;;22.75;19.75;;;;;;;;5143384;27;9898;-76
2021/11/30 08:48:54;;;;;;;;;26.50;24.00;;;;;;;;5142911;27;14504;-75
2021/11/30 08:51:20;;;;;;;;;19.75;18.75;;;;;;;;5161531;27;13585;-76
2021/11/30 08:53:45;;;;;;;;;29.25;23.25;;;;;;;;5162506;27;13344;-77
2021/11/30 08:56:11;;;;;;;;;29.33;25.00;;;;;;;;5162358;27;12386;-75
2021/11/30 08:58:36;;;;;;;;;25.67;22.67;;;;;;;;5162248;27;8891;-75
2021/11/30 09:01:02;;;;;;;;;30.00;27.25;;;;;;;;5162189;27;11407;-73
2021/11/30 09:03:28;;;;;;;;;39.50;31.00;;;;;;;;5161508;27;13540;-76
2021/11/30 09:05:54;;;;;;;;;31.75;27.75;;;;;;;;5143065;27;12710;-76
2021/11/30 09:08:19;;;;;;;;;27.25;26.75;;;;;;;;5157633;27;12636;-75
2021/11/30 09:10:45;;;;;;;;;30.33;29.00;;;;;;;;5160958;27;11369;-75
2021/11/30 09:13:11;;;;;;;;;28.00;24.00;;;;;;;;5160802;27;13220;-75
2021/11/30 09:15:38;;;;;;;;;29.33;28.33;;;;;;;;5141423;27;12550;-76
2021/11/30 09:18:03;;;;;;;;;23.00;23.00;;;;;;;;5160940;27;11873;-75
2021/11/30 09:20:30;;;;;;;;;35.00;28.50;;;;;;;;5161098;27;11542;-76
2021/11/30 09:22:56;;;;;;;;;28.67;26.67;;;;;;;;5160547;27;14794;-75
2021/11/30 09:25:22;;;;;;;;;29.75;27.75;;;;;;;;5160846;27;13288;-75
2021/11/30 09:27:48;;;;;;;;;27.00;24.67;;;;;;;;5161808;27;11492;-77
2021/11/30 09:30:14;;;;;;;;;22.67;21.33;;;;;;;;5161062;27;11559;-75
2021/11/30 09:32:40;;;;;;;;;32.67;27.00;;;;;;;;5161186;27;11733;-75
2021/11/30 09:35:07;;;;;;;;;34.00;30.00;;;;;;;;5160358;27;13487;-75
2021/11/30 09:37:34;;;;;;;;;25.25;22.75;;;;;;;;5161261;27;11859;-76
2021/11/30 09:39:59;;;;;;;;;30.00;28.50;;;;;;;;5160634;27;13326;-77
2021/11/30 09:42:25;;;;;;;;;31.50;29.25;;;;;;;;5141870;27;13311;-75
2021/11/30 09:44:50;;;;;;;;;27.25;24.50;;;;;;;;5160350;27;11697;-75
2021/11/30 09:47:16;;;;;;;;;28.33;26.00;;;;;;;;5160217;27;13771;-75
2021/11/30 09:49:41;;;;;;;;;29.67;22.00;;;;;;;;5160711;27;12500;-77
2021/11/30 09:52:07;;;;;;;;;21.67;21.67;;;;;;;;5159723;27;10536;-77
2021/11/30 09:54:32;;;;;;;;;18.67;17.00;;;;;;;;5160356;27;11423;-75
2021/11/30 09:56:58;;;;;;;;;19.33;19.33;;;;;;;;5160744;27;13184;-75
2021/11/30 09:59:23;;;;;;;;;25.00;24.33;;;;;;;;5160346;27;11555;-76
2021/11/30 10:01:48;;;;;;;;;21.67;19.33;;;;;;;;5159796;27;12352;-76
2021/11/30 10:04:14;;;;;;;;;24.67;22.00;;;;;;;;5160956;27;11412;-74
2021/11/30 10:06:39;;;;;;;;;19.00;18.00;;;;;;;;5141359;27;12563;-76
2021/11/30 10:09:14;;;;;;;;;24.00;22.33;;;;;;;;5161094;27;12376;-75
2021/11/30 10:11:39;;;;;;;;;23.00;22.75;;;;;;;;5161347;27;13316;-75
2021/11/30 10:14:13;;;;;;;;;26.67;23.33;;;;;;;;5161517;27;10389;-75
2021/11/30 10:16:39;;;;;;;;;25.33;23.00;;;;;;;;5159698;27;10447;-74
2021/11/30 10:19:04;;;;;;;;;16.33;15.33;;;;;;;;5161025;27;11620;-73
2021/11/30 10:21:30;;;;;;;;;20.00;19.67;;;;;;;;5159640;27;14555;-73
2021/11/30 10:24:04;;;;;;;;;19.33;17.00;;;;;;;;5160475;27;13490;-73
2021/11/30 10:26:34;;;;;;;;;20.00;20.00;;;;;;;;5141203;27;15528;-75
2021/11/30 10:29:04;;;;;;;;;17.00;15.33;;;;;;;;5160894;27;12290;-74
2021/11/30 10:31:35;;;;;;;;;22.00;22.00;;;;;;;;5160903;27;14540;-76
2021/11/30 10:34:08;;;;;;;;;20.67;20.67;;;;;;;;5160788;27;13366;-74
2021/11/30 10:36:42;;;;;;;;;19.67;17.00;;;;;;;;5159976;27;11696;-74
2021/11/30 10:39:18;;;;;;;;;19.67;17.00;;;;;;;;5160128;27;13835;-73
2021/11/30 10:41:43;;;;;;;;;20.00;17.67;;;;;;;;5159733;27;8815;-72
2021/11/30 10:44:09;;;;;;;;;18.67;15.67;;;;;;;;5160341;27;13380;-72
2021/11/30 10:46:35;;;;;;;;;19.67;18.00;;;;;;;;5159886;27;12243;-72
2021/11/30 10:49:00;;;;;;;;;14.67;14.00;;;;;;;;5159154;27;11613;-73
2021/11/30 10:51:27;;;;;;;;;15.33;15.33;;;;;;;;5159926;27;9031;-73
2021/11/30 10:54:00;;;;;;;;;17.00;17.00;;;;;;;;5159173;27;12230;-73
2021/11/30 10:56:26;;;;;;;;;18.00;16.00;;;;;;;;5159773;27;11622;-73
2021/11/30 10:58:52;;;;;;;;;21.00;18.67;;;;;;;;5156672;27;8775;-72
2021/11/30 11:01:19;;;;;;;;;18.75;16.00;;;;;;;;5158706;27;13379;-75
2021/11/30 11:03:46;;;;;;;;;14.50;13.50;;;;;;;;5160594;27;13281;-74
2021/11/30 11:06:31;;;;;;;;;16.25;15.50;;;;;;;;5159326;27;11984;-73
2021/11/30 11:09:03;;;;;;;;;19.50;18.50;;;;;;;;5140662;27;12799;-73
2021/11/30 11:11:30;;;;;;;;;21.75;19.50;;;;;;;;5140966;27;11491;-73
2021/11/30 11:13:55;;;;;;;;;15.50;14.75;;;;;;;;5160147;27;14222;-73
2021/11/30 11:16:28;;;;;;;;;18.00;17.00;;;;;;;;5141190;27;17057;-73
2021/11/30 11:18:55;;;;;;;;;19.00;17.50;;;;;;;;5160092;27;11754;-73
2021/11/30 11:21:29;;;;;;;;;17.00;15.75;;;;;;;;5159507;27;12516;-74
2021/11/30 11:23:57;;;;;;;;;18.75;16.00;;;;;;;;5159870;27;11606;-73
2021/11/30 11:26:28;;;;;;;;;19.00;19.00;;;;;;;;5159258;27;12793;-74
2021/11/30 11:28:54;;;;;;;;;13.25;13.25;;;;;;;;5160059;27;11451;-73
2021/11/30 11:31:20;;;;;;;;;20.75;18.00;;;;;;;;5159907;27;12148;-72
2021/11/30 11:33:46;;;;;;;;;19.00;16.75;;;;;;;;5159818;27;13276;-74
2021/11/30 11:36:11;;;;;;;;;18.50;17.50;;;;;;;;5159600;27;13234;-73
2021/11/30 11:38:37;;;;;;;;;16.25;16.25;;;;;;;;5161902;27;11431;-73
2021/11/30 11:41:02;;;;;;;;;18.00;16.75;;;;;;;;5162985;27;11369;-73
2021/11/30 11:43:28;;;;;;;;;21.75;19.25;;;;;;;;5162639;27;10372;-72
2021/11/30 11:45:54;;;;;;;;;19.50;19.50;;;;;;;;5162368;27;12246;-72
2021/11/30 11:48:19;;;;;;;;;21.00;19.25;;;;;;;;5163676;27;13259;-72
2021/11/30 11:51:03;;;;;;;;;19.00;19.00;;;;;;;;5162566;27;13212;-72
2021/11/30 11:53:31;;;;;;;;;21.25;18.00;;;;;;;;5163112;27;13379;-72
2021/11/30 11:56:23;;;;;;;;;18.25;18.25;;;;;;;;5162938;27;12480;-73
2021/11/30 11:58:50;;;;;;;;;20.33;18.67;;;;;;;;5154494;27;13294;-72
2021/11/30 12:01:17;;;;;;;;;22.67;17.33;;;;;;;;5162566;27;13380;-73
2021/11/30 12:03:49;;;;;;;;;19.00;19.00;;;;;;;;5161431;27;11596;-72
2021/11/30 12:06:16;;;;;;;;;17.33;17.33;;;;;;;;5162316;27;13288;-73
2021/11/30 12:09:01;;;;;;;;;19.67;19.67;;;;;;;;5161766;27;11749;-73
2021/11/30 12:11:39;;;;;;;;;21.00;19.67;;;;;;;;5141416;27;11782;-72
2021/11/30 12:14:11;;;;;;;;;16.33;16.00;;;;;;;;5151215;27;11462;-73
2021/11/30 12:16:55;;;;;;;;;21.67;19.33;;;;;;;;5162431;27;13324;-72
2021/11/30 12:19:23;;;;;;;;;19.00;17.00;;;;;;;;5162561;27;13291;-72
2021/11/30 12:21:49;;;;;;;;;21.00;19.00;;;;;;;;5142834;27;13915;-72
2021/11/30 12:24:30;;;;;;;;;18.67;18.00;;;;;;;;5159495;27;11459;-73
2021/11/30 12:26:55;;;;;;;;;18.00;16.67;;;;;;;;5157547;27;12396;-72
2021/11/30 12:29:21;;;;;;;;;24.00;22.00;;;;;;;;5158754;27;12361;-72
2021/11/30 12:31:47;;;;;;;;;16.67;16.67;;;;;;;;5161891;27;13377;-74
2021/11/30 12:34:33;;;;;;;;;18.67;16.67;;;;;;;;5161232;27;13353;-74
2021/11/30 12:37:21;;;;;;;;;17.33;16.33;;;;;;;;5159040;27;11509;-73
2021/11/30 12:39:54;;;;;;;;;23.00;18.00;;;;;;;;5131564;27;12270;-73
2021/11/30 12:42:20;;;;;;;;;21.00;20.33;;;;;;;;5159851;27;13290;-73
2021/11/30 12:44:45;;;;;;;;;18.33;17.00;;;;;;;;5162205;27;12761;-73
2021/11/30 12:47:18;;;;;;;;;23.33;19.00;;;;;;;;5162419;27;13884;-73
2021/11/30 12:49:44;;;;;;;;;18.33;16.00;;;;;;;;5162108;27;11770;-72
2021/11/30 12:52:12;;;;;;;;;16.00;16.00;;;;;;;;5161445;27;11644;-73
2021/11/30 12:54:39;;;;;;;;;19.67;16.33;;;;;;;;5161532;27;11483;-73
2021/11/30 12:57:05;;;;;;;;;15.67;14.33;;;;;;;;5155400;27;11480;-74
2021/11/30 12:59:36;;;;;;;;;17.33;15.00;;;;;;;;5143261;27;11469;-75
2021/11/30 13:02:15;;;;;;;;;15.00;15.00;;;;;;;;5161443;27;11440;-76
2021/11/30 13:04:41;;;;;;;;;17.00;17.00;;;;;;;;5162080;27;11626;-75
2021/11/30 13:07:07;;;;;;;;;15.00;10.00;;;;;;;;5161069;27;12257;-73
2021/11/30 13:09:46;;;;;;;;;15.67;15.67;;;;;;;;5160990;27;8890;-74
2021/11/30 13:12:18;;;;;;;;;18.67;16.00;;;;;;;;5161173;27;10384;-74
2021/11/30 13:14:44;;;;;;;;;17.00;15.67;;;;;;;;5159307;27;11603;-73
2021/11/30 13:17:10;;;;;;;;;19.67;16.00;;;;;;;;5161098;27;11438;-73
2021/11/30 13:19:37;;;;;;;;;14.67;14.67;;;;;;;;5161027;27;11392;-74
2021/11/30 13:22:04;;;;;;;;;16.33;15.33;;;;;;;;5160320;27;12661;-72
2021/11/30 13:24:48;;;;;;;;;16.33;15.00;;;;;;;;5160684;27;11466;-74
2021/11/30 13:27:13;;;;;;;;;16.00;15.33;;;;;;;;5160600;27;11429;-75
2021/11/30 13:29:39;;;;;;;;;15.67;15.00;;;;;;;;5162202;27;8959;-74
2021/11/30 13:32:06;;;;;;;;;11.00;11.00;;;;;;;;5161601;27;11446;-73
2021/11/30 13:34:31;;;;;;;;;13.67;13.33;;;;;;;;5160951;27;10602;-71
2021/11/30 13:36:56;;;;;;;;;12.00;12.00;;;;;;;;5160936;27;12146;-72
2021/11/30 13:39:22;;;;;;;;;11.67;11.67;;;;;;;;5161074;27;12514;-76
2021/11/30 13:41:47;;;;;;;;;16.00;11.00;;;;;;;;5160977;27;11830;-73
2021/11/30 13:44:12;;;;;;;;;13.25;13.25;;;;;;;;5161363;27;12602;-73
2021/11/30 13:46:40;;;;;;;;;10.00;9.25;;;;;;;;5161168;27;11387;-72
2021/11/30 13:49:06;;;;;;;;;12.50;10.50;;;;;;;;5161413;27;21432;-73
2021/11/30 13:51:35;;;;;;;;;8.75;8.00;;;;;;;;5160562;27;21466;-74
2021/11/30 13:54:03;;;;;;;;;12.00;10.25;;;;;;;;5161434;27;22278;-74
2021/11/30 13:56:31;;;;;;;;;11.00;9.25;;;;;;;;5160317;27;22740;-72
2021/11/30 13:59:09;;;;;;;;;8.25;7.25;;;;;;;;5160383;27;22154;-73
2021/11/30 14:04:01;;;;;;;;;9.75;8.25;;;;;;;;5160265;27;22459;-73
2021/11/30 14:06:26;;;;;;;;;8.50;7.25;;;;;;;;5160424;27;23583;-73
2021/11/30 14:08:54;;;;;;;;;6.50;6.50;;;;;;;;5161147;27;10796;-73
2021/11/30 14:11:21;;;;;;;;;8.00;6.50;;;;;;;;5161208;27;11552;-72
2021/11/30 14:13:46;;;;;;;;;8.75;8.75;;;;;;;;5161085;27;11372;-74
2021/11/30 14:16:11;;;;;;;;;6.00;6.00;;;;;;;;5160955;27;11424;-73
2021/11/30 14:18:52;;;;;;;;;8.00;8.00;;;;;;;;5160605;27;11456;-73
2021/11/30 14:21:18;;;;;;;;;4.25;4.25;;;;;;;;5160498;27;8796;-74
2021/11/30 14:23:43;;;;;;;;;7.00;7.00;;;;;;;;5141454;27;12247;-74
2021/11/30 14:26:23;;;;;;;;;5.50;5.50;;;;;;;;5161500;27;11290;-74
2021/11/30 14:29:03;;;;;;;;;7.00;6.25;;;;;;;;5161732;27;11426;-73
2021/11/30 14:31:48;;;;;;;;;8.00;8.00;;;;;;;;5160174;27;11497;-72
2021/11/30 14:34:14;;;;;;;;;6.00;6.00;;;;;;;;5142122;27;13467;-72
2021/11/30 14:36:39;;;;;;;;;5.25;5.25;;;;;;;;5161412;27;11369;-73
2021/11/30 14:39:20;;;;;;;;;5.00;5.00;;;;;;;;5161114;27;12076;-73
2021/11/30 14:41:46;;;;;;;;;6.67;5.33;;;;;;;;5160819;27;8794;-73
2021/11/30 14:44:24;;;;;;;;;8.50;7.25;;;;;;;;5161046;27;11480;-73
2021/11/30 14:46:50;;;;;;;;;6.00;6.00;;;;;;;;5161168;27;10407;-74
2021/11/30 14:49:18;;;;;;;;;10.00;10.00;;;;;;;;5160697;27;11668;-75
2021/11/30 14:51:43;;;;;;;;;9.00;8.00;;;;;;;;5160843;27;22276;-74
2021/11/30 14:54:10;;;;;;;;;10.00;7.00;;;;;;;;5160599;27;23527;-73
2021/11/30 14:56:45;;;;;;;;;8.00;8.00;;;;;;;;5160299;27;22575;-74
2021/11/30 14:59:11;;;;;;;;;11.00;7.00;;;;;;;;5160003;27;21979;-75
2021/11/30 15:01:42;;;;;;;;;13.00;13.00;;;;;;;;5159471;27;21671;-73
